createdAt,value
2023-03-28T00:01:07.642Z,5.40
2023-03-28T00:03:39.778Z,5.30
2023-03-28T00:06:13.869Z,5.30
2023-03-28T00:08:42.090Z,5.30
2023-03-28T00:11:19.673Z,5.30
2023-03-28T00:13:58.432Z,5.30
2023-03-28T00:16:26.456Z,5.30
2023-03-28T00:18:53.807Z,5.30
2023-03-28T00:21:27.333Z,5.20
2023-03-28T00:23:57.363Z,5.20
2023-03-28T00:26:26.764Z,5.20
2023-03-28T00:28:55.323Z,5.20
2023-03-28T00:31:23.804Z,5.20
2023-03-28T00:33:51.173Z,5.20
2023-03-28T00:36:23.104Z,5.20
2023-03-28T00:38:52.421Z,5.30
2023-03-28T00:41:24.550Z,5.30
2023-03-28T00:43:56.759Z,5.10
2023-03-28T00:46:37.171Z,5.20
2023-03-28T00:49:07.816Z,5.20
2023-03-28T00:51:38.435Z,5.20
2023-03-28T00:54:09.638Z,5.10
2023-03-28T00:56:38.674Z,5.30
2023-03-28T00:59:13.111Z,5.30
2023-03-28T01:01:41.290Z,5.30
2023-03-28T01:04:10.371Z,5.30
2023-03-28T01:06:46.541Z,5.30
2023-03-28T01:09:19.096Z,5.20
2023-03-28T01:11:51.221Z,5.20
2023-03-28T01:14:21.454Z,5.20
2023-03-28T01:16:51.394Z,5.10
2023-03-28T01:19:50.579Z,5.10
2023-03-28T01:22:38.786Z,5.10
2023-03-28T01:25:45.518Z,5.10
2023-03-28T01:28:44.910Z,4.90
2023-03-28T01:31:34.261Z,5.00
2023-03-28T01:34:33.320Z,4.90
2023-03-28T01:37:10.373Z,4.90
2023-03-28T01:40:21.169Z,4.90
2023-03-28T01:43:12.800Z,4.80
2023-03-28T01:46:07.151Z,4.80
2023-03-28T01:48:42.145Z,4.90
2023-03-28T01:51:15.245Z,4.90
2023-03-28T01:53:52.597Z,4.90
2023-03-28T01:56:37.840Z,4.90
2023-03-28T01:59:27.923Z,4.80
2023-03-28T02:02:24.533Z,4.70
2023-03-28T02:04:57.194Z,4.70
2023-03-28T02:07:26.185Z,4.60
2023-03-28T02:10:10.128Z,4.50
2023-03-28T02:13:10.987Z,4.60
2023-03-28T02:16:06.684Z,4.60
2023-03-28T02:19:07.434Z,4.50
2023-03-28T02:21:49.521Z,4.50
2023-03-28T02:24:31.750Z,4.50
2023-03-28T02:27:37.089Z,4.50
2023-03-28T02:30:34.482Z,4.40
2023-03-28T02:33:05.009Z,4.40
2023-03-28T02:36:04.335Z,4.40
2023-03-28T02:39:16.115Z,4.40
2023-03-28T02:53:58.887Z,4.10
2023-03-28T03:02:45.014Z,4.00
2023-03-28T03:16:03.176Z,3.90
2023-03-28T03:18:32.449Z,3.90
2023-03-28T03:21:01.856Z,3.90
2023-03-28T03:23:29.713Z,3.80
2023-03-28T03:25:59.512Z,3.80
2023-03-28T03:28:37.266Z,3.70
2023-03-28T03:31:06.610Z,3.70
2023-03-28T03:33:37.819Z,3.70
2023-03-28T03:36:07.242Z,3.80
2023-03-28T03:38:35.984Z,3.80
2023-03-28T03:41:04.733Z,3.70
2023-03-28T03:43:32.690Z,3.70
2023-03-28T03:46:01.549Z,3.60
2023-03-28T03:48:29.039Z,3.60
2023-03-28T03:50:58.782Z,3.60
2023-03-28T03:53:26.261Z,3.60
2023-03-28T03:56:05.206Z,3.50
2023-03-28T03:58:50.626Z,3.60
2023-03-28T04:01:17.988Z,3.60
2023-03-28T04:03:48.146Z,3.40
2023-03-28T04:06:23.920Z,3.50
2023-03-28T04:08:51.665Z,3.40
2023-03-28T04:11:32.928Z,3.40
2023-03-28T04:14:00.599Z,3.30
2023-03-28T04:16:28.318Z,3.30
2023-03-28T04:19:11.006Z,3.30
2023-03-28T04:21:42.562Z,3.30
2023-03-28T04:24:10.024Z,3.30
2023-03-28T04:26:45.951Z,3.30
2023-03-28T04:29:13.857Z,3.30
2023-03-28T04:31:50.531Z,3.40
2023-03-28T04:34:25.659Z,3.40
2023-03-28T04:37:09.172Z,3.30
2023-03-28T04:39:57.402Z,3.30
2023-03-28T04:42:43.571Z,3.30
2023-03-28T04:45:26.417Z,3.30
2023-03-28T04:47:54.838Z,3.40
2023-03-28T04:50:23.343Z,3.40
2023-03-28T04:52:50.788Z,3.30
2023-03-28T04:55:18.252Z,3.30
2023-03-28T04:57:47.680Z,3.30
2023-03-28T05:00:18.606Z,3.30
2023-03-28T05:03:18.611Z,3.40
2023-03-28T05:05:57.368Z,3.30
2023-03-28T05:08:26.741Z,3.30
2023-03-28T05:10:55.366Z,3.30
2023-03-28T05:13:23.272Z,3.20
2023-03-28T05:16:11.917Z,3.30
2023-03-28T05:19:02.542Z,3.30
2023-03-28T05:21:49.779Z,3.30
2023-03-28T05:24:18.134Z,3.30
2023-03-28T05:26:45.986Z,3.30
2023-03-28T05:29:13.457Z,3.30
2023-03-28T05:31:45.570Z,3.40
2023-03-28T05:34:20.124Z,3.40
2023-03-28T05:36:48.291Z,3.40
2023-03-28T05:39:38.616Z,3.40
2023-03-28T05:42:08.926Z,3.40
2023-03-28T05:44:38.718Z,3.30
2023-03-28T05:47:26.484Z,3.40
2023-03-28T05:49:55.025Z,3.40
2023-03-28T05:52:22.526Z,3.50
2023-03-28T05:54:51.773Z,3.60
2023-03-28T05:57:22.000Z,3.60
2023-03-28T05:59:49.676Z,3.60
2023-03-28T06:02:21.920Z,3.70
2023-03-28T06:04:49.505Z,3.70
2023-03-28T06:07:17.610Z,3.80
2023-03-28T06:09:47.128Z,3.80
2023-03-28T06:12:16.097Z,3.80
2023-03-28T06:14:49.863Z,3.80
2023-03-28T06:17:26.275Z,3.80
2023-03-28T06:20:00.231Z,3.80
2023-03-28T06:22:28.509Z,3.90
2023-03-28T06:24:59.532Z,3.90
2023-03-28T06:27:30.384Z,4.00
2023-03-28T06:29:59.728Z,4.10
2023-03-28T06:32:28.364Z,4.20
2023-03-28T06:34:56.135Z,4.20
2023-03-28T06:37:24.804Z,4.30
2023-03-28T06:39:57.338Z,4.20
2023-03-28T06:42:24.643Z,4.20
2023-03-28T06:44:58.629Z,4.20
2023-03-28T06:47:52.334Z,4.30
2023-03-28T06:50:26.218Z,4.30
2023-03-28T06:52:59.389Z,4.30
2023-03-28T06:55:26.991Z,4.30
2023-03-28T06:57:55.803Z,4.30
2023-03-28T07:00:32.669Z,4.40
2023-03-28T07:03:18.908Z,4.50
2023-03-28T07:05:46.421Z,4.60
2023-03-28T07:08:14.337Z,4.50
2023-03-28T07:10:42.317Z,4.60
2023-03-28T07:13:11.304Z,4.60
2023-03-28T07:15:48.256Z,4.70
2023-03-28T07:18:15.554Z,4.60
2023-03-28T07:20:44.167Z,4.50
2023-03-28T07:23:12.957Z,4.60
2023-03-28T07:25:40.309Z,4.60
2023-03-28T07:28:07.869Z,4.60
2023-03-28T07:30:35.302Z,4.70
2023-03-28T07:33:13.818Z,4.80
2023-03-28T07:35:46.944Z,4.90
2023-03-28T07:38:15.445Z,5.00
2023-03-28T07:40:55.321Z,5.10
2023-03-28T07:43:22.641Z,5.10
2023-03-28T07:45:49.970Z,5.10
2023-03-28T07:48:17.240Z,5.00
2023-03-28T07:50:44.795Z,5.10
2023-03-28T07:53:15.403Z,5.10
2023-03-28T07:55:54.478Z,5.10
2023-03-28T07:58:28.029Z,5.20
2023-03-28T08:01:06.090Z,5.20
2023-03-28T08:03:46.474Z,5.20
2023-03-28T08:06:31.115Z,5.10
2023-03-28T08:09:01.374Z,5.30
2023-03-28T08:11:41.293Z,5.30
2023-03-28T08:14:11.915Z,5.40
2023-03-28T08:16:39.848Z,5.60
2023-03-28T08:19:11.348Z,5.50
2023-03-28T08:22:02.725Z,5.50
2023-03-28T08:24:36.550Z,5.60
2023-03-28T08:27:21.225Z,5.80
2023-03-28T08:29:51.923Z,5.80
2023-03-28T08:32:19.644Z,5.90
2023-03-28T08:34:47.329Z,5.80
2023-03-28T08:37:17.915Z,5.90
2023-03-28T08:39:48.406Z,5.90
2023-03-28T08:42:25.709Z,6.00
2023-03-28T08:45:23.379Z,6.00
2023-03-28T08:48:00.720Z,5.90
2023-03-28T08:50:35.159Z,6.00
2023-03-28T08:53:03.948Z,6.00
2023-03-28T08:55:39.772Z,5.90
2023-03-28T08:58:12.533Z,5.90
2023-03-28T09:00:40.562Z,5.90
2023-03-28T09:03:14.039Z,5.90
2023-03-28T09:05:49.410Z,5.90
2023-03-28T09:08:36.594Z,6.00
2023-03-28T09:11:26.104Z,6.20
2023-03-28T09:14:22.568Z,6.20
2023-03-28T09:16:59.870Z,6.40
2023-03-28T09:19:56.538Z,6.40
2023-03-28T09:23:17.342Z,6.30
2023-03-28T09:26:17.147Z,6.50
2023-03-28T09:29:02.787Z,6.50
2023-03-28T09:31:40.051Z,6.40
2023-03-28T09:34:12.022Z,6.50
2023-03-28T09:36:49.389Z,6.50
2023-03-28T09:39:42.605Z,6.50
2023-03-28T09:42:42.472Z,6.60
2023-03-28T09:45:38.054Z,6.60
2023-03-28T09:48:41.044Z,6.70
2023-03-28T09:51:18.037Z,6.60
2023-03-28T09:53:46.735Z,6.60
2023-03-28T09:56:27.997Z,6.80
2023-03-28T09:59:05.423Z,6.90
2023-03-28T10:01:44.720Z,7.00
2023-03-28T10:04:37.041Z,6.90
2023-03-28T10:07:32.826Z,6.90
2023-03-28T10:10:19.132Z,7.10
2023-03-28T10:12:49.195Z,7.10
2023-03-28T10:15:45.729Z,7.00
2023-03-28T10:18:25.195Z,7.00
2023-03-28T10:21:15.658Z,7.00
2023-03-28T10:23:56.443Z,7.00
2023-03-28T10:26:26.713Z,7.00
2023-03-28T10:29:03.800Z,7.20
2023-03-28T10:31:33.979Z,7.30
2023-03-28T10:34:30.554Z,7.40
2023-03-28T10:37:24.498Z,7.40
2023-03-28T10:40:19.072Z,7.50
2023-03-28T10:43:14.976Z,7.40
2023-03-28T10:46:16.391Z,7.30
2023-03-28T10:49:17.023Z,7.20
2023-03-28T10:51:52.396Z,7.10
2023-03-28T10:54:41.411Z,7.20
2023-03-28T10:57:32.244Z,7.30
2023-03-28T11:00:09.117Z,7.40
2023-03-28T11:03:10.679Z,7.40
2023-03-28T11:06:05.867Z,7.50
2023-03-28T11:09:02.022Z,7.50
2023-03-28T11:12:23.089Z,7.60
2023-03-28T11:15:27.282Z,7.80
2023-03-28T11:18:21.501Z,7.50
2023-03-28T11:21:14.102Z,7.30
2023-03-28T11:23:53.698Z,7.20
2023-03-28T11:27:12.399Z,7.40
2023-03-28T11:30:09.984Z,7.70
2023-03-28T11:32:56.665Z,7.70
2023-03-28T11:35:44.278Z,7.60
2023-03-28T11:38:26.385Z,7.40
2023-03-28T11:41:03.880Z,7.60
2023-03-28T11:43:59.876Z,7.70
2023-03-28T11:46:42.765Z,8.00
2023-03-28T11:49:19.680Z,8.10
2023-03-28T11:52:15.493Z,8.00
2023-03-28T11:54:48.976Z,7.60
2023-03-28T11:57:39.608Z,7.00
2023-03-28T12:00:33.354Z,6.60
2023-03-28T12:03:54.869Z,6.70
2023-03-28T12:06:39.452Z,7.10
2023-03-28T12:09:59.023Z,7.30
2023-03-28T12:12:33.438Z,7.80
2023-03-28T12:15:14.405Z,7.90
2023-03-28T12:17:58.169Z,7.80
2023-03-28T12:20:39.788Z,7.70
2023-03-28T12:23:37.832Z,7.70
2023-03-28T12:27:02.772Z,8.00
2023-03-28T12:29:39.181Z,8.40
2023-03-28T12:32:34.600Z,8.60
2023-03-28T12:35:40.611Z,8.80
2023-03-28T12:38:37.370Z,8.60
2023-03-28T12:41:40.071Z,8.40
2023-03-28T12:44:15.817Z,8.20
2023-03-28T12:46:58.987Z,8.20
2023-03-28T12:49:52.252Z,8.20
2023-03-28T12:52:28.585Z,8.10
2023-03-28T12:55:27.636Z,8.30
2023-03-28T12:58:19.206Z,8.80
2023-03-28T13:01:07.873Z,9.30
2023-03-28T13:04:01.743Z,9.30
2023-03-28T13:07:01.158Z,9.00
2023-03-28T13:09:40.657Z,8.60
2023-03-28T13:12:26.177Z,7.70
2023-03-28T13:15:01.126Z,7.10
2023-03-28T13:17:32.445Z,6.70
2023-03-28T13:20:25.867Z,6.70
2023-03-28T13:22:58.585Z,6.90
2023-03-28T13:25:37.815Z,9.50
2023-03-28T13:30:45.234Z,16.60
2023-03-28T13:33:28.960Z,19.30
2023-03-28T13:35:59.275Z,18.00
2023-03-28T13:38:29.449Z,14.20
2023-03-28T13:41:09.455Z,11.90
2023-03-28T13:44:03.996Z,11.30
2023-03-28T13:46:45.560Z,13.00
2023-03-28T13:49:31.015Z,13.20
2023-03-28T13:52:05.020Z,14.60
2023-03-28T13:54:32.597Z,15.70
2023-03-28T13:57:06.721Z,16.50
2023-03-28T13:59:41.133Z,17.60
2023-03-28T14:02:22.593Z,17.60
2023-03-28T14:04:55.606Z,17.40
2023-03-28T14:07:30.150Z,17.10
2023-03-28T14:09:58.303Z,17.10
2023-03-28T14:12:29.521Z,17.80
2023-03-28T14:14:59.038Z,17.70
2023-03-28T14:17:33.576Z,17.20
2023-03-28T14:20:06.765Z,17.80
2023-03-28T14:22:49.416Z,18.60
2023-03-28T14:25:25.374Z,19.30
2023-03-28T14:27:55.835Z,19.00
2023-03-28T14:30:29.565Z,15.50
2023-03-28T14:33:14.913Z,12.20
2023-03-28T14:35:43.134Z,10.40
2023-03-28T14:38:26.632Z,9.50
2023-03-28T14:40:54.851Z,9.40
2023-03-28T14:43:31.796Z,10.50
2023-03-28T14:46:04.406Z,11.30
2023-03-28T14:48:32.317Z,10.60
2023-03-28T14:51:03.066Z,9.20
2023-03-28T14:53:37.242Z,8.20
2023-03-28T14:56:11.509Z,7.70
2023-03-28T14:58:41.785Z,7.20
2023-03-28T15:01:14.561Z,6.90
2023-03-28T15:03:46.034Z,6.70
2023-03-28T15:06:18.115Z,6.70
2023-03-28T15:08:46.038Z,6.80
2023-03-28T15:11:29.371Z,7.30
2023-03-28T15:14:03.519Z,7.60
2023-03-28T15:16:32.940Z,8.20
2023-03-28T15:19:10.113Z,7.90
2023-03-28T15:21:41.334Z,7.40
2023-03-28T15:24:13.742Z,6.80
2023-03-28T15:26:45.869Z,6.40
2023-03-28T15:29:18.904Z,6.30
2023-03-28T15:31:47.808Z,6.10
2023-03-28T15:34:27.614Z,6.10
2023-03-28T15:37:02.909Z,6.10
2023-03-28T15:39:34.891Z,6.10
2023-03-28T15:42:22.719Z,6.20
2023-03-28T15:44:58.935Z,6.10
2023-03-28T15:47:31.384Z,6.30
2023-03-28T15:50:03.754Z,6.80
2023-03-28T15:52:31.965Z,7.30
2023-03-28T15:55:01.217Z,7.80
2023-03-28T15:57:30.911Z,7.80
2023-03-28T16:00:00.345Z,8.00
2023-03-28T16:02:32.370Z,8.00
2023-03-28T16:05:09.138Z,8.00
2023-03-28T16:07:48.734Z,8.10
2023-03-28T16:10:18.732Z,8.10
2023-03-28T16:13:04.686Z,8.20
2023-03-28T16:15:52.123Z,8.00
2023-03-28T16:18:38.046Z,8.10
2023-03-28T16:21:05.865Z,8.20
2023-03-28T16:23:33.067Z,8.20
2023-03-28T16:26:00.792Z,8.10
2023-03-28T16:28:28.419Z,7.80
2023-03-28T16:30:56.055Z,7.70
2023-03-28T16:33:24.722Z,7.60
2023-03-28T16:35:52.752Z,7.70
2023-03-28T16:38:20.028Z,7.90
2023-03-28T16:40:48.606Z,7.90
2023-03-28T16:43:17.369Z,7.60
2023-03-28T16:45:49.056Z,7.40
2023-03-28T16:48:17.750Z,7.20
2023-03-28T16:50:59.364Z,7.10
2023-03-28T16:53:27.108Z,7.10
2023-03-28T16:55:54.376Z,7.10
2023-03-28T16:58:21.729Z,7.00
2023-03-28T17:00:52.208Z,6.80
2023-03-28T17:03:19.600Z,6.70
2023-03-28T17:05:47.250Z,6.60
2023-03-28T17:08:14.692Z,6.50
2023-03-28T17:10:43.552Z,6.40
2023-03-28T17:13:11.108Z,6.40
2023-03-28T17:15:39.313Z,6.30
2023-03-28T17:18:06.996Z,6.30
2023-03-28T17:20:34.368Z,6.20
2023-03-28T17:23:01.818Z,6.20
2023-03-28T17:25:29.144Z,6.20
2023-03-28T17:27:56.521Z,6.20
2023-03-28T17:30:23.831Z,6.30
2023-03-28T17:32:51.605Z,6.20
2023-03-28T17:35:18.934Z,6.10
2023-03-28T17:37:46.209Z,6.10
2023-03-28T17:40:14.635Z,6.00
2023-03-28T17:42:41.914Z,5.90
2023-03-28T17:45:10.727Z,5.90
2023-03-28T17:47:39.469Z,5.80
2023-03-28T17:50:07.547Z,5.80
2023-03-28T17:52:35.306Z,5.80
2023-03-28T17:55:02.964Z,5.80
2023-03-28T17:57:30.500Z,5.80
2023-03-28T17:59:58.365Z,5.80
2023-03-28T18:02:25.941Z,5.70
2023-03-28T18:05:06.606Z,5.60
2023-03-28T18:07:35.798Z,5.60
2023-03-28T18:10:07.756Z,5.60
2023-03-28T18:12:36.063Z,5.60
2023-03-28T18:15:04.615Z,5.60
2023-03-28T18:17:32.076Z,5.60
2023-03-28T18:19:59.490Z,5.60
2023-03-28T18:22:27.541Z,5.50
2023-03-28T18:24:54.792Z,5.50
2023-03-28T18:27:22.191Z,5.40
2023-03-28T18:29:49.611Z,5.30
2023-03-28T18:32:16.971Z,5.40
2023-03-28T18:34:45.417Z,5.30
2023-03-28T18:37:12.966Z,5.30
2023-03-28T18:39:41.778Z,5.30
2023-03-28T18:42:09.093Z,5.20
2023-03-28T18:44:37.200Z,5.20
2023-03-28T18:47:05.337Z,5.30
2023-03-28T18:49:34.773Z,5.30
2023-03-28T18:52:05.096Z,5.30
2023-03-28T18:54:34.166Z,5.40
2023-03-28T18:57:01.672Z,5.40
2023-03-28T18:59:30.087Z,5.40
2023-03-28T19:01:58.583Z,5.30
2023-03-28T19:04:26.567Z,5.30
2023-03-28T19:06:53.956Z,5.40
2023-03-28T19:09:30.522Z,5.30
2023-03-28T19:11:58.036Z,5.30
2023-03-28T19:14:25.478Z,5.30
2023-03-28T19:16:52.897Z,5.30
2023-03-28T19:19:20.248Z,5.30
2023-03-28T19:21:47.486Z,5.20
2023-03-28T19:24:18.037Z,5.20
2023-03-28T19:26:45.883Z,5.10
2023-03-28T19:29:13.565Z,5.10
2023-03-28T19:31:40.871Z,5.10
2023-03-28T19:34:08.972Z,5.10
2023-03-28T19:36:36.893Z,5.10
2023-03-28T19:39:04.302Z,5.10
2023-03-28T19:41:31.578Z,5.00
2023-03-28T19:43:58.908Z,5.10
2023-03-28T19:46:33.182Z,5.10
2023-03-28T19:49:02.912Z,5.00
2023-03-28T19:51:30.297Z,4.90
2023-03-28T19:53:57.704Z,4.90
2023-03-28T19:56:25.114Z,4.80
2023-03-28T19:58:52.802Z,4.80
2023-03-28T20:01:20.607Z,4.80
2023-03-28T20:03:52.286Z,4.90
2023-03-28T20:06:21.522Z,4.90
2023-03-28T20:08:49.561Z,4.90
2023-03-28T20:11:17.615Z,4.80
2023-03-28T20:13:45.373Z,4.90
2023-03-28T20:16:14.096Z,4.90
2023-03-28T20:18:41.517Z,4.90
2023-03-28T20:21:11.998Z,4.90
2023-03-28T20:23:39.983Z,4.90
2023-03-28T20:26:33.677Z,4.80
2023-03-28T20:29:01.595Z,4.90
2023-03-28T20:31:29.218Z,4.90
2023-03-28T20:33:56.740Z,4.90
2023-03-28T20:36:24.238Z,4.80
2023-03-28T20:38:51.610Z,4.70
2023-03-28T20:41:19.426Z,4.70
2023-03-28T20:43:47.437Z,4.60
2023-03-28T20:46:19.985Z,4.60
2023-03-28T20:48:55.247Z,4.50
2023-03-28T20:51:23.479Z,4.50
2023-03-28T20:53:57.142Z,4.50
2023-03-28T20:56:25.651Z,4.40
2023-03-28T20:58:53.911Z,4.40
2023-03-28T21:01:26.229Z,4.40
2023-03-28T21:03:55.360Z,4.40
2023-03-28T21:06:25.367Z,4.50
2023-03-28T21:08:55.049Z,4.50
2023-03-28T21:11:28.119Z,4.40
2023-03-28T21:13:56.660Z,4.40
2023-03-28T21:16:24.630Z,4.40
2023-03-28T21:18:52.202Z,4.40
2023-03-28T21:21:20.672Z,4.40
2023-03-28T21:23:48.692Z,4.40
2023-03-28T21:26:18.517Z,4.40
2023-03-28T21:28:46.526Z,4.40
2023-03-28T21:31:16.997Z,4.40
2023-03-28T21:33:45.798Z,4.40
2023-03-28T21:36:16.253Z,4.40
2023-03-28T21:38:44.743Z,4.40
2023-03-28T21:41:12.815Z,4.40
2023-03-28T21:43:40.989Z,4.40
2023-03-28T21:46:09.123Z,4.40
2023-03-28T21:48:37.048Z,4.40
2023-03-28T21:51:04.968Z,4.30
2023-03-28T21:53:34.955Z,4.20
2023-03-28T21:56:03.293Z,4.20
2023-03-28T21:58:32.808Z,4.20
2023-03-28T22:01:01.978Z,4.10
2023-03-28T22:03:30.216Z,4.10
2023-03-28T22:05:57.660Z,4.20
2023-03-28T22:08:24.910Z,4.20
2023-03-28T22:10:58.681Z,4.20
2023-03-28T22:13:29.223Z,4.20
2023-03-28T22:15:59.961Z,4.20
2023-03-28T22:18:30.734Z,4.30
2023-03-28T22:21:02.585Z,4.30
2023-03-28T22:23:30.645Z,4.30
2023-03-28T22:25:58.677Z,4.30
2023-03-28T22:28:26.165Z,4.20
2023-03-28T22:30:55.120Z,4.10
2023-03-28T22:33:23.682Z,4.10
2023-03-28T22:35:51.798Z,3.90
2023-03-28T22:38:19.513Z,3.90
2023-03-28T22:40:58.511Z,3.90
2023-03-28T22:43:25.920Z,3.70
2023-03-28T22:45:53.400Z,3.70
2023-03-28T22:48:21.987Z,3.60
2023-03-28T22:50:50.381Z,3.60
2023-03-28T22:53:18.314Z,3.60
2023-03-28T22:55:45.518Z,3.60
2023-03-28T22:58:12.926Z,3.50
2023-03-28T23:00:40.440Z,3.50
2023-03-28T23:03:08.208Z,3.40
2023-03-28T23:05:36.862Z,3.40
2023-03-28T23:08:05.583Z,3.40
2023-03-28T23:10:34.031Z,3.40
2023-03-28T23:13:01.584Z,3.30
2023-03-28T23:15:28.923Z,3.30
2023-03-28T23:17:56.533Z,3.30
2023-03-28T23:20:24.743Z,3.30
2023-03-28T23:22:52.027Z,3.30
2023-03-28T23:25:19.652Z,3.30
2023-03-28T23:27:47.355Z,3.30
2023-03-28T23:30:15.819Z,3.30
2023-03-28T23:32:43.227Z,3.30
2023-03-28T23:35:11.735Z,3.30
2023-03-28T23:37:39.111Z,3.30
2023-03-28T23:40:14.856Z,3.30
2023-03-28T23:42:44.429Z,3.30
2023-03-28T23:45:14.038Z,3.30
2023-03-28T23:47:42.017Z,3.30
2023-03-28T23:50:11.769Z,3.30
2023-03-28T23:52:39.896Z,3.40
2023-03-28T23:55:08.893Z,3.40
2023-03-28T23:57:36.506Z,3.40
